Startpagina
METAR-TAF:

METAR-TAF

Vliegvelden :

Gran Canaria, Spanje

Aeropuerto de Gran Canaria

breedte: 27-56N, lengte: 015-23W, hoogte: 23 m

Actueel weer

Dit bericht is 33 minuten geleden gemaakt, om 23:30 UTC
Wind 20 kt uit het noordnoordoosten
Temperatuur 22°C
Vochtigheid 83%
Druk 1019 hPa
Zicht 10 km of meer
geen wolken onder 1500 m en geen cumulonimbus

METAR: GCLP 272330Z 02020KT CAVOK 22/19 Q1019 NOSIG

Tijdstip: 01:03 (00:03 UTC)

Verwachting

Dit bericht is 4 uur en het 3 minuten geleden gemaakt, om 20:00 UTC
Verwachting geldig van 27 om 21 UTC tot 28 om 21 UTC
Wind 22 kt uit het noorden
Zicht 10 km of meer
geen wolken onder 1500 m en geen cumulonimbus
Kans 30% :
Tijdelijke
van 28 om 10 UTC tot 28 om 19 UTC
Wind 23 kt uit het noordnoordoosten met uitschieters tot 33 kt

TAF: GCLP 272000Z 2721/2821 01022KT CAVOK TX28/2814Z TN22/2805Z PROB30 TEMPO 2810/2819 02023G33KT

Waarnemingen en weersverwachtingen van meer dan 4000 vliegvelden (METAR en TAF).

De beschikbare stations zijn de gele en rode punten op de kaart.

Ga met uw muis naar het station om de naam te zien.

Klik dan om waarnemingen en weersverwachtingen te zien.

kaart wijzigen: klik op de groene knoppen met een zwart kruis om in te zoomen, op de groene knop met een streepje om uit te zoomen of op de groene pijlen voor aangrenzende kaarten.


METAR-TAF: